Portada
METAR-TAF:

METAR-TAF

Aeroports :

L'Havana, Cuba

latitud: 22-59N, longitud: 082-24W, altitud: 59 m

Observació

L'informe es va fer fa 22 minuts, a les 16:55 UTC
Vent 14 kt del Est/Nord-Est, variant entre Nord/Nord-Est i Est
Temperatura 30°C
Humitat 52%
Pressió 1016 hPa
Visibilitat: 9000 m
Núvols disperses a una alçada de 3000 ft

METAR: MUHA 131655Z 06014KT 030V100 9000 SCT030 30/19 Q1016

Hora: 13:17 (17:17 UTC)

Pronòstic

L'informe es va fer fa 6 hores i 17 minuts, a les 11:00 UTC
Pronòstic vàlid del 13 a les 12 UTC al 14 a les 12 UTC
Vent 6 kt del Nord/Nord-Est
Visibilitat: 9000 m
Escasses núvols a una alçada de 3000 ft
Evolucionant progressivament
l' 13 a les 16 UTC al 13 a les 17 UTC
Vent 12 kt del Nord-Est
Evolucionant progressivament
l' 14 a les 01 UTC al 14 a les 03 UTC
Vent 5 kt del Est

TAF: MUHA 131100Z 1312/1412 03006KT 9000 FEW030 BECMG 1316/1317 05012KT BECMG 1401/1403 09005KT

Observacions i pronòstics meteorològics de més de 4000 aeroports (METAR i TAF).

Les estacions disponibles són els punts grocs i vermells al mapa.

Posi el ratolí al punt desitjat per veure el nom de l'estació.

Feu clic per veure les observacions i els pronòstics meteorològics.

Per canviar el mapa: feu clic els botons verds amb una creu de color negre per apropar; al botó verd amb un guió per allunyar la imatge; o en les fletxes verdes per a mapes adjacents.


METAR-TAF: